createdAt,value
2018-12-19T00:00:19.029Z,0
2018-12-19T00:00:59.802Z,0
2018-12-19T00:01:40.621Z,0
2018-12-19T00:02:21.378Z,0
2018-12-19T00:03:02.170Z,0
2018-12-19T00:03:42.842Z,0
2018-12-19T00:04:23.587Z,0
2018-12-19T00:05:04.297Z,0
2018-12-19T00:05:45.173Z,0
2018-12-19T00:06:25.895Z,0
2018-12-19T00:07:06.605Z,0
2018-12-19T00:07:47.360Z,0
2018-12-19T00:08:28.141Z,0
2018-12-19T00:09:08.958Z,0
2018-12-19T00:09:49.661Z,0
2018-12-19T00:10:30.382Z,0
2018-12-19T00:11:11.061Z,0
2018-12-19T00:11:51.848Z,0
2018-12-19T00:12:32.573Z,0
2018-12-19T00:13:13.364Z,0
2018-12-19T00:13:54.081Z,0
2018-12-19T00:14:34.772Z,0
2018-12-19T00:15:15.553Z,0
2018-12-19T00:15:56.352Z,0
2018-12-19T00:16:37.084Z,0
2018-12-19T00:17:17.837Z,0
2018-12-19T00:17:58.536Z,0
2018-12-19T00:18:39.338Z,0
2018-12-19T00:19:20.131Z,0
2018-12-19T00:20:00.893Z,0
2018-12-19T00:20:41.628Z,0
2018-12-19T00:21:22.345Z,0
2018-12-19T00:22:03.070Z,0
2018-12-19T00:22:43.873Z,0
2018-12-19T00:23:24.593Z,0
2018-12-19T00:24:05.291Z,0
2018-12-19T00:24:46.083Z,0
2018-12-19T00:25:26.841Z,0
2018-12-19T00:26:07.663Z,0
2018-12-19T00:26:48.411Z,0
2018-12-19T00:27:29.122Z,0
2018-12-19T00:28:09.992Z,0
2018-12-19T00:28:50.738Z,0
2018-12-19T00:29:31.477Z,0
2018-12-19T00:30:12.201Z,0
2018-12-19T00:30:52.899Z,0
2018-12-19T00:31:33.715Z,0
2018-12-19T00:32:14.431Z,0
2018-12-19T00:32:55.173Z,0
2018-12-19T00:33:35.970Z,0
2018-12-19T00:34:16.757Z,0
2018-12-19T00:34:57.553Z,0
2018-12-19T00:35:38.285Z,0
2018-12-19T00:36:18.967Z,0
2018-12-19T00:36:59.692Z,0
2018-12-19T00:37:40.433Z,0
2018-12-19T00:38:21.277Z,0
2018-12-19T00:39:02.081Z,0
2018-12-19T00:39:42.833Z,0
2018-12-19T00:40:23.537Z,0
2018-12-19T00:41:04.285Z,0
2018-12-19T00:41:45.091Z,0
2018-12-19T00:42:25.826Z,0
2018-12-19T00:43:06.583Z,0
2018-12-19T00:43:47.288Z,0
2018-12-19T00:44:28.057Z,0
2018-12-19T00:45:08.839Z,0
2018-12-19T00:45:49.634Z,0
2018-12-19T00:46:30.361Z,0
2018-12-19T00:47:11.058Z,0
2018-12-19T00:47:51.784Z,0
2018-12-19T00:48:32.485Z,0
2018-12-19T00:49:13.268Z,0
2018-12-19T00:49:53.995Z,0
2018-12-19T00:50:34.741Z,0
2018-12-19T00:51:15.525Z,0
2018-12-19T00:51:56.321Z,0
2018-12-19T00:52:37.101Z,0
2018-12-19T00:53:17.826Z,0
2018-12-19T00:53:58.535Z,0
2018-12-19T00:54:39.294Z,0
2018-12-19T00:55:20.109Z,0
2018-12-19T00:56:00.842Z,0
2018-12-19T00:56:41.645Z,0
2018-12-19T00:57:22.469Z,0
2018-12-19T00:58:03.109Z,0
2018-12-19T00:58:43.963Z,0
2018-12-19T00:59:24.701Z,0
2018-12-19T01:00:05.426Z,0
2018-12-19T01:00:46.147Z,0
2018-12-19T01:01:26.895Z,0
2018-12-19T01:02:07.708Z,0
2018-12-19T01:02:48.448Z,0
2018-12-19T01:03:29.198Z,0
2018-12-19T01:04:09.990Z,0
2018-12-19T01:04:50.738Z,0
2018-12-19T01:05:31.550Z,0
2018-12-19T01:06:12.299Z,0
2018-12-19T01:06:53.180Z,0
2018-12-19T01:07:33.989Z,0
2018-12-19T01:08:14.699Z,0
2018-12-19T01:08:55.454Z,0
2018-12-19T01:09:36.101Z,0
2018-12-19T01:10:16.811Z,0
2018-12-19T01:10:57.610Z,0
2018-12-19T01:11:38.444Z,0
2018-12-19T01:12:19.224Z,0
2018-12-19T01:12:59.934Z,0
2018-12-19T01:13:40.682Z,0
2018-12-19T01:14:21.443Z,0
2018-12-19T01:15:02.265Z,0
2018-12-19T01:15:43.018Z,0
2018-12-19T01:16:23.685Z,0
2018-12-19T01:17:04.541Z,0
2018-12-19T01:17:45.347Z,0
2018-12-19T01:18:26.144Z,0
2018-12-19T01:19:06.879Z,0
2018-12-19T01:19:47.626Z,0
2018-12-19T01:20:28.409Z,0
2018-12-19T01:21:09.122Z,0
2018-12-19T01:21:49.865Z,0
2018-12-19T01:22:30.549Z,0
2018-12-19T01:23:11.323Z,0
2018-12-19T01:23:52.095Z,0
2018-12-19T01:24:32.856Z,0
2018-12-19T01:25:13.569Z,0
2018-12-19T01:25:54.384Z,0
2018-12-19T01:26:35.173Z,0
2018-12-19T01:27:15.929Z,0
2018-12-19T01:27:56.657Z,0
2018-12-19T01:28:37.378Z,0
2018-12-19T01:29:18.059Z,0
2018-12-19T01:29:58.869Z,0
2018-12-19T01:30:39.644Z,0
2018-12-19T01:31:20.431Z,0
2018-12-19T01:32:01.180Z,0
2018-12-19T01:32:41.913Z,0
2018-12-19T01:33:22.717Z,0
2018-12-19T01:34:03.447Z,0
2018-12-19T01:34:44.154Z,0
2018-12-19T01:35:24.839Z,0
2018-12-19T01:36:05.624Z,0
2018-12-19T01:36:46.440Z,0
2018-12-19T01:37:27.149Z,0
2018-12-19T01:38:07.837Z,0
2018-12-19T01:38:48.649Z,0
2018-12-19T01:39:29.423Z,0
2018-12-19T01:40:10.228Z,0
2018-12-19T01:40:50.996Z,0
2018-12-19T01:41:31.680Z,0
2018-12-19T01:42:12.482Z,0
2018-12-19T01:42:53.226Z,0
2018-12-19T01:43:33.917Z,0
2018-12-19T01:44:14.619Z,0
2018-12-19T01:44:55.367Z,0
2018-12-19T01:45:36.156Z,0
2018-12-19T01:46:16.949Z,0
2018-12-19T01:46:57.726Z,0
2018-12-19T01:47:38.464Z,0
2018-12-19T01:48:19.202Z,0
2018-12-19T01:48:59.931Z,0
2018-12-19T01:49:40.714Z,0
2018-12-19T01:50:21.476Z,0
2018-12-19T01:51:02.196Z,0
2018-12-19T01:51:42.972Z,0
2018-12-19T01:52:23.739Z,0
2018-12-19T01:53:04.510Z,0
2018-12-19T01:53:45.245Z,0
2018-12-19T01:54:25.988Z,0
2018-12-19T01:55:06.750Z,0
2018-12-19T01:55:47.527Z,0
2018-12-19T01:56:28.308Z,0
2018-12-19T01:57:09.115Z,0
2018-12-19T01:57:49.866Z,0
2018-12-19T01:58:30.594Z,0
2018-12-19T01:59:11.426Z,0
2018-12-19T01:59:52.194Z,0
2018-12-19T02:00:32.927Z,0
2018-12-19T02:01:13.622Z,0
2018-12-19T02:01:54.368Z,0
2018-12-19T02:02:35.144Z,0
2018-12-19T02:03:15.875Z,0
2018-12-19T02:03:56.688Z,0
2018-12-19T02:04:37.473Z,0
2018-12-19T02:05:18.237Z,0
2018-12-19T02:05:59.002Z,0
2018-12-19T02:06:39.747Z,0
2018-12-19T02:07:20.518Z,0
2018-12-19T02:08:01.262Z,0
2018-12-19T02:08:41.985Z,0
2018-12-19T02:09:28.720Z,0
2018-12-19T02:10:03.627Z,0
2018-12-19T02:10:44.399Z,0
2018-12-19T02:11:25.138Z,0
2018-12-19T02:12:05.895Z,0
2018-12-19T02:12:46.675Z,0
2018-12-19T02:13:27.397Z,0
2018-12-19T02:14:08.123Z,0
2018-12-19T02:14:48.882Z,0
2018-12-19T02:15:29.652Z,0
2018-12-19T02:16:10.407Z,0
2018-12-19T02:16:51.138Z,0
2018-12-19T02:17:31.897Z,0
2018-12-19T02:18:12.702Z,0
2018-12-19T02:18:53.487Z,0
2018-12-19T02:19:34.262Z,0
2018-12-19T02:20:14.970Z,0
2018-12-19T02:20:55.706Z,0
2018-12-19T02:21:36.430Z,0
2018-12-19T02:22:17.217Z,0
2018-12-19T02:22:58.014Z,0
2018-12-19T02:23:38.800Z,0
2018-12-19T02:24:19.519Z,0
2018-12-19T02:25:00.196Z,0
2018-12-19T02:25:40.960Z,0
2018-12-19T02:26:21.665Z,0
2018-12-19T02:27:02.380Z,0
2018-12-19T02:27:43.074Z,0
2018-12-19T02:28:23.825Z,0
2018-12-19T02:29:04.631Z,0
2018-12-19T02:29:45.413Z,0
2018-12-19T02:30:26.224Z,0
2018-12-19T02:31:06.905Z,0
2018-12-19T02:31:47.599Z,0
2018-12-19T02:32:28.319Z,0
2018-12-19T02:33:09.056Z,0
2018-12-19T02:33:49.843Z,0
2018-12-19T02:34:30.576Z,0
2018-12-19T02:35:11.316Z,0
2018-12-19T02:35:52.113Z,0
2018-12-19T02:36:32.844Z,0
2018-12-19T02:37:13.621Z,0
2018-12-19T02:37:54.369Z,0
2018-12-19T02:38:35.210Z,0
2018-12-19T02:39:15.983Z,0
2018-12-19T02:39:56.744Z,0
2018-12-19T02:40:37.567Z,0
2018-12-19T02:41:18.431Z,0
2018-12-19T02:41:59.130Z,0
2018-12-19T02:42:39.858Z,0
2018-12-19T02:43:20.650Z,0
2018-12-19T02:44:01.402Z,0
2018-12-19T02:44:42.142Z,0
2018-12-19T02:45:22.854Z,0
2018-12-19T02:46:03.611Z,0
2018-12-19T02:46:58.977Z,0
2018-12-19T02:47:39.744Z,0
2018-12-19T02:48:20.476Z,0
2018-12-19T02:49:01.322Z,0
2018-12-19T02:49:42.111Z,0
2018-12-19T02:50:22.905Z,0
2018-12-19T02:51:03.660Z,0
2018-12-19T02:51:44.402Z,0
2018-12-19T02:52:25.234Z,0
2018-12-19T02:53:05.915Z,0
2018-12-19T02:53:46.608Z,0
2018-12-19T02:54:27.339Z,0
2018-12-19T02:55:08.096Z,0
2018-12-19T02:55:48.907Z,0
2018-12-19T02:56:29.674Z,0
2018-12-19T02:57:10.421Z,0
2018-12-19T02:57:51.168Z,0
2018-12-19T02:58:31.870Z,0
2018-12-19T02:59:12.590Z,0
2018-12-19T02:59:53.459Z,0
2018-12-19T03:00:34.144Z,0
2018-12-19T03:01:14.875Z,0
2018-12-19T03:01:55.677Z,0
2018-12-19T03:02:36.503Z,0
2018-12-19T03:03:17.300Z,0
2018-12-19T03:03:57.974Z,0
2018-12-19T03:04:38.658Z,0
2018-12-19T03:05:19.364Z,0
2018-12-19T03:06:00.161Z,0
2018-12-19T03:06:40.996Z,0
2018-12-19T03:07:21.797Z,0
2018-12-19T03:08:02.535Z,0
2018-12-19T03:08:43.259Z,0
2018-12-19T03:09:24.062Z,0
2018-12-19T03:10:04.849Z,0
2018-12-19T03:10:45.585Z,0
2018-12-19T03:11:26.290Z,0
2018-12-19T03:12:07.025Z,0
2018-12-19T03:12:47.808Z,0
2018-12-19T03:13:28.607Z,0
2018-12-19T03:14:09.418Z,0
2018-12-19T03:14:50.161Z,0
2018-12-19T03:15:30.917Z,0
2018-12-19T03:16:11.649Z,0
2018-12-19T03:16:52.467Z,0
2018-12-19T03:17:33.254Z,0
2018-12-19T03:18:13.992Z,0
2018-12-19T03:18:54.767Z,0
2018-12-19T03:19:35.565Z,0
2018-12-19T03:20:16.348Z,0
2018-12-19T03:20:57.108Z,0
2018-12-19T03:21:37.796Z,0
2018-12-19T03:22:18.561Z,0
2018-12-19T03:22:59.329Z,0
2018-12-19T03:23:40.063Z,0
2018-12-19T03:24:20.756Z,0
2018-12-19T03:25:01.513Z,0
2018-12-19T03:25:42.289Z,0
2018-12-19T03:26:23.014Z,0
2018-12-19T03:27:03.742Z,0
2018-12-19T03:27:44.618Z,0
2018-12-19T03:28:25.403Z,0
2018-12-19T03:29:06.241Z,0
2018-12-19T03:29:46.987Z,0
2018-12-19T03:30:27.757Z,0
2018-12-19T03:31:08.487Z,0
2018-12-19T03:31:49.269Z,0
2018-12-19T03:32:30.024Z,0
2018-12-19T03:33:10.774Z,0
2018-12-19T03:33:51.547Z,0
2018-12-19T03:34:32.274Z,0
2018-12-19T03:35:13.071Z,0
2018-12-19T03:35:53.904Z,0
2018-12-19T03:36:34.631Z,0
2018-12-19T03:37:15.356Z,0
2018-12-19T03:37:56.073Z,0
2018-12-19T03:38:36.850Z,0
2018-12-19T03:39:17.653Z,0
2018-12-19T03:39:58.375Z,0
2018-12-19T03:40:39.129Z,0
2018-12-19T03:41:19.912Z,0
2018-12-19T03:42:00.750Z,0
2018-12-19T03:42:41.499Z,0
2018-12-19T03:43:22.235Z,0
2018-12-19T03:44:03.013Z,0
2018-12-19T03:44:43.768Z,0
2018-12-19T03:45:24.488Z,0
2018-12-19T03:46:05.205Z,0
2018-12-19T03:46:45.912Z,0
2018-12-19T03:47:26.727Z,0
2018-12-19T03:48:07.480Z,0
2018-12-19T03:48:48.296Z,0
2018-12-19T03:49:28.989Z,0
2018-12-19T03:50:09.683Z,0
2018-12-19T03:50:50.384Z,0
2018-12-19T03:51:31.144Z,0
2018-12-19T03:52:11.941Z,0
2018-12-19T03:52:52.630Z,0
2018-12-19T03:53:33.386Z,0
2018-12-19T03:54:14.218Z,0
2018-12-19T03:54:54.980Z,0
2018-12-19T03:55:35.722Z,0
2018-12-19T03:56:16.426Z,0
2018-12-19T03:56:57.242Z,0
2018-12-19T03:57:38.017Z,0
2018-12-19T03:58:18.747Z,0
2018-12-19T03:58:59.460Z,0
2018-12-19T03:59:41.220Z,0
2018-12-19T04:00:21.011Z,0
2018-12-19T04:01:01.805Z,0
2018-12-19T04:01:42.563Z,0
2018-12-19T04:02:23.313Z,0
2018-12-19T04:03:04.111Z,0
2018-12-19T04:03:44.976Z,0
2018-12-19T04:04:25.703Z,0
2018-12-19T04:05:06.423Z,0
2018-12-19T04:05:47.176Z,0
2018-12-19T04:06:27.940Z,0
2018-12-19T04:07:08.746Z,0
2018-12-19T04:07:49.580Z,0
2018-12-19T04:08:30.343Z,0
2018-12-19T04:09:11.108Z,0
2018-12-19T04:09:57.580Z,0
2018-12-19T04:10:32.748Z,0
2018-12-19T04:11:13.486Z,0
2018-12-19T04:11:54.194Z,0
2018-12-19T04:12:34.934Z,0
2018-12-19T04:13:15.744Z,0
2018-12-19T04:13:56.588Z,0
2018-12-19T04:14:37.363Z,0
2018-12-19T04:15:18.095Z,0
2018-12-19T04:15:58.826Z,0
2018-12-19T04:16:39.559Z,0
2018-12-19T04:17:20.333Z,0
2018-12-19T04:18:01.154Z,0
2018-12-19T04:18:41.900Z,0
2018-12-19T04:19:22.639Z,0
2018-12-19T04:20:03.438Z,0
2018-12-19T04:20:44.195Z,0
2018-12-19T04:21:24.992Z,0
2018-12-19T04:22:05.718Z,0
2018-12-19T04:22:46.441Z,0
2018-12-19T04:23:27.132Z,0
2018-12-19T04:24:07.859Z,0
2018-12-19T04:24:48.701Z,0
2018-12-19T04:25:29.520Z,0
2018-12-19T04:26:10.218Z,0
2018-12-19T04:26:50.943Z,0
2018-12-19T04:27:31.746Z,0
2018-12-19T04:28:12.503Z,0
2018-12-19T04:28:53.196Z,0
2018-12-19T04:29:33.927Z,0
2018-12-19T04:30:14.689Z,0
2018-12-19T04:30:55.544Z,0
2018-12-19T04:31:36.271Z,0
2018-12-19T04:32:17.028Z,0
2018-12-19T04:32:57.876Z,0
2018-12-19T04:33:38.642Z,0
2018-12-19T04:34:19.447Z,0
2018-12-19T04:35:00.143Z,0
2018-12-19T04:35:40.861Z,0
2018-12-19T04:36:21.705Z,0
2018-12-19T04:37:02.444Z,0
2018-12-19T04:37:43.173Z,0
2018-12-19T04:38:23.887Z,0
2018-12-19T04:39:04.666Z,0
2018-12-19T04:39:45.496Z,0
2018-12-19T04:40:26.256Z,0
2018-12-19T04:41:07.040Z,0
2018-12-19T04:41:47.788Z,0
2018-12-19T04:42:28.519Z,0
2018-12-19T04:43:09.248Z,0
2018-12-19T04:43:50.060Z,0
2018-12-19T04:44:30.814Z,0
2018-12-19T04:45:11.518Z,0
2018-12-19T04:45:52.288Z,0
2018-12-19T04:46:33.047Z,0
2018-12-19T04:47:13.839Z,0
2018-12-19T04:47:54.552Z,0
2018-12-19T04:48:35.262Z,0
2018-12-19T04:49:16.063Z,0
2018-12-19T04:49:56.795Z,0
2018-12-19T04:50:37.490Z,0
2018-12-19T04:51:18.209Z,0
2018-12-19T04:51:58.936Z,0
2018-12-19T04:52:39.723Z,0
2018-12-19T04:53:20.492Z,0
2018-12-19T04:54:01.180Z,0
2018-12-19T04:54:41.974Z,0
2018-12-19T04:55:22.721Z,0
2018-12-19T04:56:03.504Z,0
2018-12-19T04:56:44.235Z,0
2018-12-19T04:57:24.981Z,0
2018-12-19T04:58:05.733Z,0
2018-12-19T04:58:46.509Z,0
2018-12-19T04:59:27.298Z,0
2018-12-19T05:00:08.133Z,0
2018-12-19T05:00:48.875Z,0
2018-12-19T05:01:29.606Z,0
2018-12-19T05:02:10.383Z,0
2018-12-19T05:02:51.149Z,0
2018-12-19T05:03:31.881Z,0
2018-12-19T05:04:12.611Z,0
2018-12-19T05:04:53.340Z,0
2018-12-19T05:05:34.157Z,0
2018-12-19T05:06:14.871Z,0
2018-12-19T05:06:55.594Z,0
2018-12-19T05:07:36.403Z,0
2018-12-19T05:08:17.141Z,0
2018-12-19T05:08:57.953Z,0
2018-12-19T05:09:38.660Z,0
2018-12-19T05:10:19.381Z,0
2018-12-19T05:11:00.226Z,0
2018-12-19T05:11:40.997Z,0
2018-12-19T05:12:21.689Z,0
2018-12-19T05:13:02.412Z,0
2018-12-19T05:13:43.146Z,0
2018-12-19T05:14:23.933Z,0
2018-12-19T05:15:04.719Z,0
2018-12-19T05:15:45.479Z,0
2018-12-19T05:16:26.177Z,0
2018-12-19T05:17:06.921Z,0
2018-12-19T05:17:47.620Z,0
2018-12-19T05:18:28.422Z,0
2018-12-19T05:19:09.139Z,0
2018-12-19T05:19:49.839Z,0
2018-12-19T05:20:30.601Z,0
2018-12-19T05:21:11.407Z,0
2018-12-19T05:21:52.225Z,0
2018-12-19T05:22:32.928Z,0
2018-12-19T05:23:13.596Z,0
2018-12-19T05:23:54.350Z,0
2018-12-19T05:24:35.087Z,0
2018-12-19T05:25:15.881Z,0
2018-12-19T05:25:56.676Z,0
2018-12-19T05:26:37.449Z,0
2018-12-19T05:27:18.197Z,0
2018-12-19T05:27:58.922Z,0
2018-12-19T05:28:39.700Z,0
2018-12-19T05:29:20.448Z,0
2018-12-19T05:30:01.171Z,0
2018-12-19T05:30:41.874Z,0
2018-12-19T05:31:22.654Z,0
2018-12-19T05:32:03.507Z,0
2018-12-19T05:32:44.330Z,0
2018-12-19T05:33:25.082Z,0
2018-12-19T05:34:05.882Z,0
2018-12-19T05:34:46.609Z,0
2018-12-19T05:35:27.340Z,0
2018-12-19T05:36:08.134Z,0
2018-12-19T05:36:48.897Z,0
2018-12-19T05:37:29.644Z,0
2018-12-19T05:38:10.463Z,0
2018-12-19T05:38:51.246Z,0
2018-12-19T05:39:32.017Z,0
2018-12-19T05:40:18.567Z,0
2018-12-19T05:40:53.433Z,0
2018-12-19T05:41:34.234Z,0
2018-12-19T05:42:15.061Z,0
2018-12-19T05:42:55.731Z,0
2018-12-19T05:43:36.450Z,0
2018-12-19T05:44:17.183Z,0
2018-12-19T05:44:57.982Z,0
2018-12-19T05:45:38.688Z,0
2018-12-19T05:46:19.404Z,0
2018-12-19T05:47:00.198Z,0
2018-12-19T05:47:40.996Z,0
2018-12-19T05:48:21.830Z,0
2018-12-19T05:49:02.556Z,0
2018-12-19T05:49:43.281Z,0
2018-12-19T05:50:24.039Z,0
2018-12-19T05:51:04.835Z,0
2018-12-19T05:51:45.628Z,0
2018-12-19T05:52:26.465Z,0
2018-12-19T05:53:07.157Z,0
2018-12-19T05:53:47.884Z,0
2018-12-19T05:54:28.655Z,0
2018-12-19T05:55:09.391Z,0
2018-12-19T05:55:50.097Z,0
2018-12-19T05:56:30.783Z,0
2018-12-19T05:57:11.511Z,0
2018-12-19T05:57:52.280Z,0
2018-12-19T05:58:33.007Z,0
2018-12-19T05:59:13.747Z,0
2018-12-19T05:59:54.590Z,0
2018-12-19T06:00:35.398Z,0
2018-12-19T06:01:16.174Z,0
2018-12-19T06:01:56.901Z,0
2018-12-19T06:02:37.697Z,0
2018-12-19T06:03:18.477Z,0
2018-12-19T06:03:59.274Z,0
2018-12-19T06:04:40.000Z,0
2018-12-19T06:05:20.725Z,0
2018-12-19T06:06:01.509Z,0
2018-12-19T06:06:42.231Z,0
2018-12-19T06:07:23.027Z,0
2018-12-19T06:08:03.819Z,0
2018-12-19T06:08:44.533Z,0
2018-12-19T06:09:25.207Z,0
2018-12-19T06:10:05.937Z,0
2018-12-19T06:10:46.769Z,0
2018-12-19T06:11:27.555Z,0
2018-12-19T06:12:08.292Z,0
2018-12-19T06:12:49.094Z,0
2018-12-19T06:13:29.875Z,0
2018-12-19T06:14:10.656Z,0
2018-12-19T06:14:51.365Z,0
2018-12-19T06:15:32.138Z,0
2018-12-19T06:16:12.967Z,0
2018-12-19T06:16:53.701Z,0
2018-12-19T06:17:34.431Z,0
2018-12-19T06:18:15.132Z,0
2018-12-19T06:18:55.883Z,0
2018-12-19T06:19:36.648Z,0
2018-12-19T06:20:17.408Z,0
2018-12-19T06:20:58.146Z,0
2018-12-19T06:21:38.968Z,0
2018-12-19T06:22:19.778Z,0
2018-12-19T06:23:00.572Z,0
2018-12-19T06:23:41.270Z,0
2018-12-19T06:24:22.028Z,0
2018-12-19T06:25:02.726Z,0
2018-12-19T06:25:43.485Z,0
2018-12-19T06:26:24.277Z,0
2018-12-19T06:27:05.142Z,0
2018-12-19T06:27:45.884Z,0
2018-12-19T06:28:26.597Z,0
2018-12-19T06:29:07.408Z,0
2018-12-19T06:29:48.131Z,0
2018-12-19T06:30:28.828Z,0
2018-12-19T06:31:09.587Z,0
2018-12-19T06:31:50.281Z,0
2018-12-19T06:32:31.129Z,0
2018-12-19T06:33:11.963Z,0
2018-12-19T06:33:52.772Z,0
2018-12-19T06:34:33.478Z,0
2018-12-19T06:35:14.181Z,0
2018-12-19T06:35:54.904Z,0
2018-12-19T06:36:35.670Z,0
2018-12-19T06:37:16.443Z,0
2018-12-19T06:37:57.200Z,0
2018-12-19T06:38:37.981Z,0
2018-12-19T06:39:18.802Z,0
2018-12-19T06:39:59.573Z,0
2018-12-19T06:40:40.315Z,0
2018-12-19T06:41:21.041Z,0
2018-12-19T06:42:01.829Z,0
2018-12-19T06:42:42.473Z,0
2018-12-19T06:43:23.298Z,0
2018-12-19T06:44:04.143Z,0
2018-12-19T06:44:44.898Z,0
2018-12-19T06:45:25.618Z,0
2018-12-19T06:46:06.383Z,0
2018-12-19T06:46:47.194Z,0
2018-12-19T06:47:27.947Z,0
2018-12-19T06:48:08.695Z,0
2018-12-19T06:48:49.406Z,0
2018-12-19T06:49:30.254Z,0
2018-12-19T06:50:11.063Z,0
2018-12-19T06:50:51.849Z,0
2018-12-19T06:51:32.602Z,0
2018-12-19T06:52:13.333Z,0
2018-12-19T06:52:54.181Z,0
2018-12-19T06:53:35.037Z,0
2018-12-19T06:54:15.798Z,0
2018-12-19T06:54:56.608Z,0
2018-12-19T06:55:37.377Z,0
2018-12-19T06:56:18.158Z,0
2018-12-19T06:56:58.888Z,0
2018-12-19T06:57:39.541Z,4
2018-12-19T06:58:20.387Z,4
2018-12-19T06:59:01.251Z,4
2018-12-19T06:59:42.051Z,0
2018-12-19T07:00:22.799Z,0
2018-12-19T07:01:03.490Z,4
2018-12-19T07:01:44.197Z,4
2018-12-19T07:02:24.934Z,4
2018-12-19T07:03:05.730Z,0
2018-12-19T07:03:46.516Z,4
2018-12-19T07:04:27.212Z,4
2018-12-19T07:05:08.012Z,4
2018-12-19T07:05:48.851Z,4
2018-12-19T07:06:29.599Z,4
2018-12-19T07:07:10.315Z,4
2018-12-19T07:07:51.017Z,8
2018-12-19T07:08:31.738Z,4
2018-12-19T07:09:12.488Z,8
2018-12-19T07:09:53.296Z,4
2018-12-19T07:10:39.043Z,8
2018-12-19T07:11:14.846Z,8
2018-12-19T07:11:55.579Z,12
2018-12-19T07:12:36.379Z,12
2018-12-19T07:13:17.179Z,16
2018-12-19T07:13:57.870Z,12
2018-12-19T07:14:38.583Z,12
2018-12-19T07:15:19.283Z,16
2018-12-19T07:16:00.080Z,16
2018-12-19T07:16:43.518Z,20
2018-12-19T07:17:21.740Z,20
2018-12-19T07:18:02.472Z,20
2018-12-19T07:18:43.186Z,20
2018-12-19T07:19:23.885Z,20
2018-12-19T07:20:04.668Z,24
2018-12-19T07:20:45.518Z,24
2018-12-19T07:21:26.260Z,28
2018-12-19T07:22:07.024Z,28
2018-12-19T07:22:47.869Z,32
2018-12-19T07:23:28.634Z,32
2018-12-19T07:24:09.442Z,36
2018-12-19T07:24:50.151Z,40
2018-12-19T07:25:30.891Z,40
2018-12-19T07:26:11.710Z,40
2018-12-19T07:26:52.433Z,44
2018-12-19T07:27:33.185Z,44
2018-12-19T07:28:13.943Z,52
2018-12-19T07:28:54.714Z,52
2018-12-19T07:29:35.492Z,56
2018-12-19T07:30:16.242Z,56
2018-12-19T07:30:56.973Z,56
2018-12-19T07:31:37.928Z,60
2018-12-19T07:32:18.728Z,64
2018-12-19T07:32:59.523Z,64
2018-12-19T07:33:40.261Z,64
2018-12-19T07:34:21.032Z,72
2018-12-19T07:35:01.782Z,72
2018-12-19T07:35:42.582Z,76
2018-12-19T07:36:23.435Z,80
2018-12-19T07:37:04.243Z,84
2018-12-19T07:37:44.964Z,84
2018-12-19T07:38:25.719Z,92
2018-12-19T07:39:06.550Z,96
2018-12-19T07:39:47.264Z,100
2018-12-19T07:40:27.994Z,104
2018-12-19T07:41:08.697Z,108
2018-12-19T07:41:49.466Z,112
2018-12-19T07:42:30.347Z,112
2018-12-19T07:43:11.114Z,116
2018-12-19T07:43:51.881Z,120
2018-12-19T07:44:32.627Z,120
2018-12-19T07:45:13.335Z,124
2018-12-19T07:45:54.121Z,128
2018-12-19T07:46:34.908Z,132
2018-12-19T07:47:15.696Z,132
2018-12-19T07:47:56.420Z,136
2018-12-19T07:48:37.211Z,136
2018-12-19T07:49:18.025Z,140
2018-12-19T07:49:58.831Z,144
2018-12-19T07:50:39.590Z,148
2018-12-19T07:51:20.322Z,148
2018-12-19T07:52:01.029Z,152
2018-12-19T07:52:41.787Z,152
2018-12-19T07:53:22.617Z,152
2018-12-19T07:54:03.384Z,156
2018-12-19T07:54:44.150Z,156
2018-12-19T07:55:24.869Z,156
2018-12-19T07:56:05.605Z,152
2018-12-19T07:56:46.442Z,152
2018-12-19T07:57:27.158Z,152
2018-12-19T07:58:07.931Z,156
2018-12-19T07:58:48.647Z,160
2018-12-19T07:59:29.408Z,160
2018-12-19T08:00:10.184Z,164
2018-12-19T08:00:50.898Z,164
2018-12-19T08:01:31.685Z,164
2018-12-19T08:02:12.483Z,164
2018-12-19T08:02:53.271Z,168
2018-12-19T08:03:34.105Z,172
2018-12-19T08:04:14.860Z,172
2018-12-19T08:04:55.640Z,172
2018-12-19T08:05:36.502Z,176
2018-12-19T08:06:17.333Z,180
2018-12-19T08:06:58.073Z,180
2018-12-19T08:07:38.842Z,184
2018-12-19T08:08:19.617Z,184
2018-12-19T08:09:00.480Z,188
2018-12-19T08:09:41.283Z,192
2018-12-19T08:10:22.037Z,196
2018-12-19T08:11:02.748Z,192
2018-12-19T08:11:43.472Z,192
2018-12-19T08:12:24.273Z,188
2018-12-19T08:13:05.056Z,188
2018-12-19T08:13:45.777Z,188
2018-12-19T08:14:26.538Z,188
2018-12-19T08:15:07.406Z,188
2018-12-19T08:15:48.175Z,188
2018-12-19T08:16:28.943Z,188
2018-12-19T08:17:09.662Z,188
2018-12-19T08:17:50.498Z,192
2018-12-19T08:18:31.317Z,196
2018-12-19T08:19:12.009Z,196
2018-12-19T08:19:52.721Z,204
2018-12-19T08:20:33.423Z,200
2018-12-19T08:21:14.217Z,192
2018-12-19T08:21:54.985Z,184
2018-12-19T08:22:35.685Z,184
2018-12-19T08:23:16.447Z,184
2018-12-19T08:23:57.221Z,184
2018-12-19T08:24:38.061Z,188
2018-12-19T08:25:18.822Z,188
2018-12-19T08:25:59.524Z,184
2018-12-19T08:26:40.257Z,184
2018-12-19T08:27:21.027Z,184
2018-12-19T08:28:01.834Z,184
2018-12-19T08:28:42.615Z,188
2018-12-19T08:29:23.423Z,188
2018-12-19T08:30:04.183Z,188
2018-12-19T08:30:44.926Z,188
2018-12-19T08:31:25.734Z,188
2018-12-19T08:32:06.490Z,192
2018-12-19T08:32:47.221Z,196
2018-12-19T08:33:27.944Z,196
2018-12-19T08:34:08.682Z,200
2018-12-19T08:34:49.484Z,204
2018-12-19T08:35:30.190Z,204
2018-12-19T08:36:10.943Z,208
2018-12-19T08:36:51.715Z,208
2018-12-19T08:37:32.504Z,212
2018-12-19T08:38:13.353Z,212
2018-12-19T08:38:54.065Z,216
2018-12-19T08:39:34.900Z,216
2018-12-19T08:40:15.689Z,216
2018-12-19T08:40:58.822Z,220
2018-12-19T08:41:37.110Z,220
2018-12-19T08:42:17.794Z,220
2018-12-19T08:42:58.597Z,224
2018-12-19T08:43:39.360Z,224
2018-12-19T08:44:20.188Z,224
2018-12-19T08:45:00.960Z,224
2018-12-19T08:45:41.657Z,224
2018-12-19T08:46:22.373Z,228
2018-12-19T08:47:03.135Z,224
2018-12-19T08:47:43.931Z,232
2018-12-19T08:48:24.668Z,228
2018-12-19T08:49:05.414Z,232
2018-12-19T08:49:46.235Z,232
2018-12-19T08:50:26.992Z,232
2018-12-19T08:51:07.769Z,236
2018-12-19T08:51:48.513Z,236
2018-12-19T08:52:29.276Z,240
2018-12-19T08:53:10.009Z,236
2018-12-19T08:53:50.818Z,240
2018-12-19T08:54:31.642Z,236
2018-12-19T08:55:12.413Z,236
2018-12-19T08:55:53.151Z,236
2018-12-19T08:56:33.870Z,232
2018-12-19T08:57:14.662Z,232
2018-12-19T08:57:55.354Z,232
2018-12-19T08:58:36.052Z,236
2018-12-19T08:59:16.765Z,236
2018-12-19T08:59:57.493Z,236
2018-12-19T09:00:38.319Z,236
2018-12-19T09:01:19.127Z,236
2018-12-19T09:01:59.912Z,236
2018-12-19T09:02:40.604Z,236
2018-12-19T09:03:21.306Z,236
2018-12-19T09:04:02.032Z,236
2018-12-19T09:04:42.813Z,236
2018-12-19T09:05:23.558Z,240
2018-12-19T09:06:04.295Z,240
2018-12-19T09:06:45.081Z,240
2018-12-19T09:07:25.854Z,240
2018-12-19T09:08:06.673Z,240
2018-12-19T09:08:47.386Z,240
2018-12-19T09:09:28.122Z,240
2018-12-19T09:10:08.930Z,240
2018-12-19T09:10:49.669Z,244
2018-12-19T09:11:30.376Z,244
2018-12-19T09:12:11.113Z,240
2018-12-19T09:12:51.853Z,244
2018-12-19T09:13:32.687Z,248
2018-12-19T09:14:13.404Z,252
2018-12-19T09:14:54.094Z,256
2018-12-19T09:15:34.865Z,256
2018-12-19T09:16:15.636Z,268
2018-12-19T09:16:56.414Z,264
2018-12-19T09:17:37.148Z,284
2018-12-19T09:18:17.833Z,300
2018-12-19T09:18:58.595Z,308
2018-12-19T09:19:39.339Z,308
2018-12-19T09:20:20.152Z,320
2018-12-19T09:21:00.951Z,316
2018-12-19T09:21:41.734Z,324
2018-12-19T09:22:22.448Z,308
2018-12-19T09:23:03.188Z,304
2018-12-19T09:23:43.972Z,300
2018-12-19T09:24:24.724Z,284
2018-12-19T09:25:05.413Z,284
2018-12-19T09:25:46.101Z,268
2018-12-19T09:26:26.891Z,284
2018-12-19T09:27:07.717Z,324
2018-12-19T09:27:48.460Z,348
2018-12-19T09:28:29.149Z,372
2018-12-19T09:29:09.856Z,372
2018-12-19T09:29:50.574Z,368
2018-12-19T09:30:31.375Z,364
2018-12-19T09:31:12.131Z,364
2018-12-19T09:31:52.911Z,356
2018-12-19T09:32:33.650Z,356
2018-12-19T09:33:14.447Z,356
2018-12-19T09:33:55.223Z,348
2018-12-19T09:34:35.960Z,344
2018-12-19T09:35:16.647Z,352
2018-12-19T09:35:57.341Z,348
2018-12-19T09:36:38.074Z,304
2018-12-19T09:37:18.904Z,348
2018-12-19T09:37:59.718Z,352
2018-12-19T09:38:41.007Z,332
2018-12-19T09:39:21.182Z,288
2018-12-19T09:40:01.894Z,324
2018-12-19T09:40:42.676Z,340
2018-12-19T09:41:23.406Z,340
2018-12-19T09:42:04.115Z,332
2018-12-19T09:42:44.840Z,324
2018-12-19T09:43:25.602Z,332
2018-12-19T09:44:06.365Z,324
2018-12-19T09:44:47.069Z,332
2018-12-19T09:45:27.838Z,332
2018-12-19T09:46:08.603Z,340
2018-12-19T09:46:49.430Z,340
2018-12-19T09:47:30.210Z,332
2018-12-19T09:48:10.892Z,328
2018-12-19T09:48:51.663Z,308
2018-12-19T09:49:32.424Z,300
2018-12-19T09:50:13.174Z,292
2018-12-19T09:50:53.890Z,292
2018-12-19T09:51:34.632Z,300
2018-12-19T09:52:15.433Z,284